Time;durP1;ratioP1;P1;durP2;ratioP2;P2;SDS_P1;SDS_P2;PMS_P1;PMS_P2;Temp;Humidity;BMP_temperature;BMP_pressure;BME280_temperature;BME280_humidity;BME280_pressure;Samples;Min_cycle;Max_cycle;Signal;HPM_P1;HPM_P2
2022/03/20 00:01:43;;;;;;;49.20;14.90;;;;;;;-0.72;52.00;101947.39;103692;1299;24381;-28
2022/03/20 00:04:09;;;;;;;33.60;14.30;;;;;;;-0.75;51.98;101948.89;103675;1300;24252;-28
2022/03/20 00:06:34;;;;;;;32.50;13.10;;;;;;;-0.86;52.60;101951.45;103511;1300;24282;-29
2022/03/20 00:09:00;;;;;;;40.10;13.30;;;;;;;-0.83;53.52;101949.40;103624;1300;22505;-26
2022/03/20 00:11:28;;;;;;;32.40;13.10;;;;;;;-1.03;53.64;101948.80;103670;1299;22765;-28
2022/03/20 00:13:54;;;;;;;30.20;14.50;;;;;;;-1.10;54.30;101947.65;103519;1303;24450;-28
2022/03/20 00:16:23;;;;;;;39.30;14.40;;;;;;;-1.25;54.74;101950.30;103630;1300;24248;-26
2022/03/20 00:18:49;;;;;;;37.10;13.60;;;;;;;-1.24;53.61;101944.66;103585;1301;24199;-25
2022/03/20 00:21:14;;;;;;;40.60;16.80;;;;;;;-1.23;53.44;101944.80;103478;1302;22756;-27
2022/03/20 00:23:40;;;;;;;29.70;13.50;;;;;;;-1.28;53.95;101945.36;103707;1300;24301;-27
2022/03/20 00:26:07;;;;;;;27.20;11.50;;;;;;;-1.34;53.26;101943.81;103527;1300;24245;-26
2022/03/20 00:28:32;;;;;;;18.70;10.70;;;;;;;-1.39;54.33;101946.63;103677;1299;24986;-26
2022/03/20 00:30:58;;;;;;;41.10;14.90;;;;;;;-1.45;53.89;101950.02;103625;1300;24441;-26
2022/03/20 00:33:24;;;;;;;49.80;15.30;;;;;;;-1.51;53.82;101946.56;103654;1299;24192;-26
2022/03/20 00:35:50;;;;;;;34.10;14.40;;;;;;;-1.60;55.91;101946.36;103600;1300;24270;-29
2022/03/20 00:38:16;;;;;;;43.70;15.80;;;;;;;-1.71;55.20;101943.77;103505;1302;24355;-26
2022/03/20 00:40:42;;;;;;;51.10;16.40;;;;;;;-1.76;55.58;101941.48;103666;1300;24387;-28
2022/03/20 00:43:07;;;;;;;38.80;16.10;;;;;;;-1.80;56.25;101943.56;103525;1300;24348;-27
2022/03/20 00:45:34;;;;;;;33.10;14.30;;;;;;;-1.81;54.96;101939.56;103666;1299;24214;-26
2022/03/20 00:48:00;;;;;;;42.50;13.30;;;;;;;-1.85;54.92;101940.58;103677;1300;24339;-30
2022/03/20 00:50:26;;;;;;;34.60;14.20;;;;;;;-2.00;56.82;101939.37;103751;1299;24245;-30
2022/03/20 00:52:52;;;;;;;28.40;11.80;;;;;;;-2.11;57.57;101941.48;103641;1299;24359;-27
2022/03/20 00:55:18;;;;;;;28.20;11.10;;;;;;;-2.18;58.37;101938.77;103640;1300;24216;-30
2022/03/20 00:57:43;;;;;;;43.30;15.70;;;;;;;-2.25;58.52;101937.41;103674;1300;24245;-27
2022/03/20 01:00:11;;;;;;;41.00;15.30;;;;;;;-2.40;60.85;101936.67;103685;1300;24339;-30
2022/03/20 01:02:38;;;;;;;36.30;14.00;;;;;;;-2.55;60.38;101939.98;103799;1300;24221;-26
2022/03/20 01:05:04;;;;;;;28.60;11.50;;;;;;;-2.67;59.47;101935.29;103613;1301;24295;-26
2022/03/20 01:07:30;;;;;;;21.10;9.10;;;;;;;-2.71;60.76;101936.83;103614;1300;24253;-29
2022/03/20 01:09:56;;;;;;;27.00;12.80;;;;;;;-2.70;57.42;101939.27;103619;1300;24211;-26
2022/03/20 01:12:22;;;;;;;54.80;25.70;;;;;;;-2.67;57.55;101933.89;103536;1301;24298;-25
2022/03/20 01:14:48;;;;;;;62.40;25.90;;;;;;;-2.68;57.44;101935.33;103685;1300;24211;-26
2022/03/20 01:17:13;;;;;;;155.90;82.20;;;;;;;-2.55;55.94;101926.34;103666;1300;24326;-27
2022/03/20 01:19:39;;;;;;;33.10;13.40;;;;;;;-2.49;55.78;101924.34;103574;1300;24195;-28
2022/03/20 01:22:05;;;;;;;42.60;15.80;;;;;;;-2.27;55.17;101923.62;103626;1300;22488;-26
2022/03/20 01:24:30;;;;;;;33.80;15.60;;;;;;;-2.11;55.08;101920.77;103703;1300;24393;-29
2022/03/20 01:26:56;;;;;;;48.70;17.90;;;;;;;-2.04;54.84;101923.34;103611;1300;24189;-28
2022/03/20 01:29:22;;;;;;;40.40;14.80;;;;;;;-2.00;54.77;101922.86;103554;1300;24317;-28
2022/03/20 01:31:49;;;;;;;35.10;13.70;;;;;;;-1.98;54.98;101926.64;103562;1300;22513;-26
2022/03/20 01:34:14;;;;;;;34.10;16.00;;;;;;;-2.00;55.56;101930.06;103641;1300;24263;-26
2022/03/20 01:36:41;;;;;;;30.30;10.50;;;;;;;-2.11;55.84;101931.65;103569;1300;24215;-30
2022/03/20 01:39:07;;;;;;;34.40;11.70;;;;;;;-2.25;55.49;101927.59;103691;1300;22916;-26
2022/03/20 01:41:33;;;;;;;44.40;15.20;;;;;;;-2.50;56.95;101924.89;103496;1302;24373;-26
2022/03/20 01:43:59;;;;;;;40.20;15.10;;;;;;;-2.82;60.38;101929.30;103504;1303;24285;-29
2022/03/20 01:46:25;;;;;;;41.70;16.80;;;;;;;-3.08;64.66;101929.91;103680;1300;24285;-25
2022/03/20 01:48:51;;;;;;;46.20;14.20;;;;;;;-3.21;65.13;101931.73;103626;1300;22707;-26
2022/03/20 01:51:17;;;;;;;23.80;10.80;;;;;;;-3.23;63.43;101929.01;103680;1299;24207;-25
2022/03/20 01:53:43;;;;;;;25.90;10.50;;;;;;;-3.19;65.70;101926.77;103516;1302;24217;-26
2022/03/20 01:56:09;;;;;;;23.50;8.70;;;;;;;-3.13;64.24;101924.64;103511;1301;24214;-25
2022/03/20 01:58:35;;;;;;;27.40;10.70;;;;;;;-3.07;65.84;101920.08;103570;1300;24324;-29
2022/03/20 02:01:02;;;;;;;29.50;12.40;;;;;;;-3.07;65.14;101917.81;103494;1303;24311;-28
2022/03/20 02:03:29;;;;;;;50.20;17.00;;;;;;;-3.16;63.68;101915.09;103455;1303;22551;-29
2022/03/20 02:05:55;;;;;;;30.00;11.30;;;;;;;-3.26;64.39;101915.57;103604;1300;24255;-27
2022/03/20 02:08:25;;;;;;;41.70;15.50;;;;;;;-3.28;64.35;101911.08;103629;1300;23645;-30
2022/03/20 02:10:52;;;;;;;33.30;14.70;;;;;;;-3.33;64.26;101913.50;103486;1300;24028;-26
2022/03/20 02:13:22;;;;;;;31.20;10.50;;;;;;;-3.35;65.23;101912.17;103575;1300;24336;-27
2022/03/20 02:15:49;;;;;;;29.30;11.40;;;;;;;-3.35;66.14;101907.79;103563;1300;24296;-27
2022/03/20 02:18:15;;;;;;;28.10;10.00;;;;;;;-3.34;65.91;101905.67;103668;1300;24349;-25
2022/03/20 02:20:46;;;;;;;27.10;11.30;;;;;;;-3.31;65.86;101904.34;103539;1302;24315;-28
2022/03/20 02:23:13;;;;;;;25.80;11.90;;;;;;;-3.26;66.40;101904.73;103643;1300;24196;-28
2022/03/20 02:25:47;;;;;;;39.00;12.40;;;;;;;-3.26;65.80;101906.65;103581;1303;24214;-26
2022/03/20 02:28:14;;;;;;;41.50;16.20;;;;;;;-3.31;65.78;101906.45;103590;1300;22617;-26
2022/03/20 02:30:40;;;;;;;46.00;16.50;;;;;;;-3.36;64.36;101907.46;103656;1300;22843;-26
2022/03/20 02:33:05;;;;;;;41.40;18.20;;;;;;;-3.39;64.59;101902.14;103727;1300;22511;-26
2022/03/20 02:35:31;;;;;;;33.70;13.00;;;;;;;-3.39;65.35;101900.90;103551;1300;22691;-29
2022/03/20 02:37:57;;;;;;;41.40;16.00;;;;;;;-3.42;65.63;101900.65;103649;1299;24214;-28
2022/03/20 02:40:23;;;;;;;33.90;11.30;;;;;;;-3.50;66.53;101897.73;103610;1300;24193;-25
2022/03/20 02:42:51;;;;;;;43.20;15.50;;;;;;;-3.48;66.64;101898.89;103645;1300;24339;-25
2022/03/20 02:45:20;;;;;;;41.50;14.20;;;;;;;-3.47;66.54;101899.05;103642;1300;24015;-25
2022/03/20 02:47:46;;;;;;;42.50;16.40;;;;;;;-3.50;66.40;101903.16;103540;1302;24269;-26
2022/03/20 02:50:17;;;;;;;37.00;15.00;;;;;;;-3.57;66.25;101909.13;103606;1300;24365;-29
2022/03/20 02:52:45;;;;;;;37.00;14.30;;;;;;;-3.66;66.61;101906.61;103614;1300;22983;-25
2022/03/20 02:55:12;;;;;;;45.40;13.00;;;;;;;-3.72;67.37;101906.05;103616;1299;24192;-25
2022/03/20 02:57:38;;;;;;;34.10;13.30;;;;;;;-3.74;68.75;101902.98;103699;1300;24206;-28
2022/03/20 03:00:05;;;;;;;37.90;15.70;;;;;;;-3.72;68.00;101905.57;103512;1300;24238;-26
2022/03/20 03:02:35;;;;;;;42.60;14.40;;;;;;;-3.74;68.26;101901.41;103610;1300;24237;-28
2022/03/20 03:05:01;;;;;;;48.80;14.90;;;;;;;-3.77;68.48;101900.09;103588;1301;24368;-29
2022/03/20 03:07:28;;;;;;;42.90;17.50;;;;;;;-3.78;67.97;101899.73;103627;1299;24388;-28
2022/03/20 03:12:22;;;;;;;49.30;16.40;;;;;;;-3.77;64.45;101893.09;103665;1300;22507;-25
2022/03/20 03:17:27;;;;;;;47.70;14.90;;;;;;;-3.74;64.61;101891.08;103697;1299;22500;-34
2022/03/20 03:19:55;;;;;;;36.90;16.20;;;;;;;-3.77;66.23;101894.48;103652;1300;24653;-29
2022/03/20 03:22:20;;;;;;;48.60;17.00;;;;;;;-3.79;67.88;101894.70;103646;1300;24361;-26
2022/03/20 03:24:46;;;;;;;44.10;14.90;;;;;;;-3.77;67.30;101894.66;103697;1300;24243;-33
2022/03/20 03:27:12;;;;;;;43.50;17.30;;;;;;;-3.77;67.47;101893.77;103683;1299;24339;-28
2022/03/20 03:29:38;;;;;;;46.00;16.50;;;;;;;-3.68;64.90;101895.63;103595;1300;24249;-29
2022/03/20 03:32:05;;;;;;;42.30;18.00;;;;;;;-3.60;64.66;101889.63;103651;1300;24221;-28
2022/03/20 03:36:59;;;;;;;39.10;17.30;;;;;;;-3.55;64.06;101892.63;103544;1300;24246;-29
2022/03/20 03:39:25;;;;;;;59.80;17.40;;;;;;;-3.54;63.85;101897.30;103496;1302;24208;-28
2022/03/20 03:41:51;;;;;;;42.60;16.90;;;;;;;-3.52;63.70;101900.05;103634;1299;24252;-29
2022/03/20 03:44:18;;;;;;;44.80;17.70;;;;;;;-3.50;63.84;101901.22;103659;1300;24415;-25
2022/03/20 03:46:44;;;;;;;39.30;18.00;;;;;;;-3.49;63.82;101898.76;103499;1302;24294;-28
2022/03/20 03:49:10;;;;;;;48.70;16.10;;;;;;;-3.47;64.10;101903.08;103624;1300;22495;-30
2022/03/20 03:51:35;;;;;;;43.10;18.30;;;;;;;-3.44;64.13;101901.05;103650;1300;24267;-26
2022/03/20 03:54:01;;;;;;;37.90;17.50;;;;;;;-3.43;63.75;101908.02;103541;1300;24224;-26
2022/03/20 03:56:27;;;;;;;43.80;19.00;;;;;;;-3.41;63.56;101908.84;103557;1300;24206;-26
2022/03/20 03:58:52;;;;;;;49.70;17.70;;;;;;;-3.39;63.21;101909.64;103619;1300;24364;-30
2022/03/20 04:01:18;;;;;;;38.60;17.10;;;;;;;-3.36;63.41;101907.98;103564;1300;24303;-27
2022/03/20 04:03:44;;;;;;;44.50;18.90;;;;;;;-3.32;63.04;101910.16;103554;1300;24221;-28
2022/03/20 04:06:10;;;;;;;45.40;19.40;;;;;;;-3.24;62.77;101909.05;103547;1300;24218;-25
2022/03/20 04:08:36;;;;;;;43.10;19.40;;;;;;;-3.22;62.42;101901.28;103538;1300;22534;-30
2022/03/20 04:11:02;;;;;;;40.10;18.50;;;;;;;-3.18;62.50;101895.71;103659;1300;24218;-27
2022/03/20 04:13:29;;;;;;;55.40;18.70;;;;;;;-3.18;62.32;101895.36;100292;1300;4574984;-25
2022/03/20 04:15:54;;;;;;;54.60;19.50;;;;;;;-3.19;62.01;101894.50;103531;1300;24318;-29
2022/03/20 04:18:20;;;;;;;44.20;18.00;;;;;;;-3.23;62.32;101900.77;103536;1300;24317;-27
2022/03/20 04:20:46;;;;;;;53.20;16.30;;;;;;;-3.28;62.11;101902.67;103531;1302;22724;-26
2022/03/20 04:25:41;;;;;;;48.80;17.00;;;;;;;-3.30;61.97;101903.61;103566;1300;24365;-26
2022/03/20 04:28:06;;;;;;;40.40;17.80;;;;;;;-3.31;61.96;101906.45;103571;1300;24358;-26
2022/03/20 04:30:33;;;;;;;44.40;15.70;;;;;;;-3.29;61.58;101909.70;103557;1300;24253;-26
2022/03/20 04:32:59;;;;;;;40.90;16.80;;;;;;;-3.24;61.38;101908.36;103578;1300;24377;-25
2022/03/20 04:35:24;;;;;;;50.10;17.80;;;;;;;-3.18;61.40;101906.93;103558;1300;24224;-27
2022/03/20 04:37:51;;;;;;;47.70;18.50;;;;;;;-3.15;60.96;101906.85;103559;1300;24413;-27
2022/03/20 04:40:17;;;;;;;36.20;16.40;;;;;;;-3.08;60.86;101902.93;103564;1300;24375;-26
2022/03/20 04:42:43;;;;;;;40.40;17.00;;;;;;;-3.01;60.55;101902.89;103619;1300;24230;-30
2022/03/20 04:45:10;;;;;;;33.30;16.60;;;;;;;-2.97;60.27;101907.33;103476;1302;24249;-26
2022/03/20 05:00:06;;;;;;;57.80;19.20;;;;;;;-2.94;60.93;101912.31;103562;1300;24247;-28
2022/03/20 05:02:31;;;;;;;35.00;16.40;;;;;;;-2.83;60.97;101911.77;103529;1300;24378;-26
2022/03/20 05:04:57;;;;;;;44.50;17.20;;;;;;;-2.72;60.91;101916.87;103549;1300;22498;-26
2022/03/20 05:07:23;;;;;;;28.40;14.10;;;;;;;-2.65;61.11;101921.04;103564;1300;24246;-29
2022/03/20 05:14:50;;;;;;;32.70;13.50;;;;;;;-2.50;60.97;101929.64;103546;1301;24093;-25
2022/03/20 05:17:16;;;;;;;33.90;15.80;;;;;;;-2.52;61.16;101932.00;103532;1300;24345;-25
2022/03/20 05:19:42;;;;;;;36.80;13.70;;;;;;;-2.50;60.95;101931.92;103521;1300;24263;-30
2022/03/20 05:22:10;;;;;;;31.60;14.80;;;;;;;-2.52;60.99;101932.17;103550;1300;24210;-26
2022/03/20 05:24:35;;;;;;;40.00;18.80;;;;;;;-2.52;61.03;101933.23;103584;1300;25146;-26
2022/03/20 05:27:02;;;;;;;38.10;16.40;;;;;;;-2.48;60.97;101931.33;103642;1300;24262;-26
2022/03/20 05:29:28;;;;;;;31.50;15.30;;;;;;;-2.46;61.21;101934.60;103565;1300;24363;-26
2022/03/20 05:31:53;;;;;;;30.50;13.00;;;;;;;-2.43;61.48;101938.01;103594;1300;24343;-26
2022/03/20 05:34:19;;;;;;;43.50;16.90;;;;;;;-2.39;61.23;101939.12;103509;1300;24215;-27
2022/03/20 05:36:46;;;;;;;28.20;14.90;;;;;;;-2.32;60.86;101935.88;103542;1300;24352;-29
2022/03/20 05:39:12;;;;;;;40.80;15.10;;;;;;;-2.21;60.35;101940.95;103595;1300;24245;-26
2022/03/20 05:44:11;;;;;;;33.50;15.50;;;;;;;-2.07;60.19;101944.16;103585;1300;22506;-26
2022/03/20 05:46:38;;;;;;;34.90;17.30;;;;;;;-2.01;59.84;101946.25;103562;1302;22523;-26
2022/03/20 05:49:05;;;;;;;26.00;11.90;;;;;;;-1.94;59.64;101948.97;103592;1300;24250;-29
2022/03/20 05:51:32;;;;;;;31.20;14.30;;;;;;;-1.85;59.95;101954.45;103613;1300;22617;-26
2022/03/20 05:53:58;;;;;;;34.60;13.50;;;;;;;-1.78;60.03;101959.83;103497;1301;24315;-28
2022/03/20 05:58:53;;;;;;;28.00;13.90;;;;;;;-1.70;60.53;101962.19;103579;1300;24349;-29
2022/03/20 06:01:20;;;;;;;25.70;12.80;;;;;;;-1.64;60.17;101961.63;103504;1300;24313;-26
2022/03/20 06:03:45;;;;;;;30.20;13.00;;;;;;;-1.59;59.53;101960.90;103493;1300;24256;-25
2022/03/20 06:06:12;;;;;;;30.30;14.10;;;;;;;-1.52;59.65;101965.05;103536;1301;22501;-25
2022/03/20 06:08:38;;;;;;;30.40;13.20;;;;;;;-1.45;59.42;101964.07;103526;1300;24234;-26
2022/03/20 06:11:03;;;;;;;37.20;13.80;;;;;;;-1.25;59.42;101967.38;103505;1300;24358;-28
2022/03/20 06:13:31;;;;;;;32.90;12.90;;;;;;;-1.05;59.25;101968.55;103489;1300;24271;-26
2022/03/20 06:15:57;;;;;;;33.40;15.20;;;;;;;-0.83;58.81;101969.27;103544;1300;22610;-28
2022/03/20 06:18:25;;;;;;;43.20;17.30;;;;;;;-0.64;59.26;101969.57;103493;1302;22518;-27
2022/03/20 06:20:52;;;;;;;34.80;14.20;;;;;;;-0.40;58.92;101970.73;103536;1300;24305;-25
2022/03/20 06:23:18;;;;;;;39.00;15.10;;;;;;;-0.15;58.95;101962.45;103637;1300;24294;-28
2022/03/20 06:25:44;;;;;;;33.80;14.40;;;;;;;0.12;58.19;101963.96;103499;1300;24298;-25
2022/03/20 06:28:09;;;;;;;39.00;14.90;;;;;;;0.32;57.31;101964.33;103557;1300;24311;-30
2022/03/20 06:30:35;;;;;;;27.60;12.00;;;;;;;0.55;56.44;101964.36;103564;1300;22842;-28
2022/03/20 06:33:02;;;;;;;26.30;12.50;;;;;;;0.72;55.69;101967.07;103556;1300;22515;-24
2022/03/20 06:35:28;;;;;;;39.90;16.50;;;;;;;0.85;54.73;101963.48;103556;1300;24362;-25
2022/03/20 06:37:54;;;;;;;53.30;17.00;;;;;;;1.09;54.35;101963.63;103565;1300;23829;-25
2022/03/20 06:40:20;;;;;;;32.50;15.50;;;;;;;1.24;51.61;101969.27;103596;1300;24289;-25
2022/03/20 06:42:46;;;;;;;43.60;17.90;;;;;;;1.27;50.62;101972.13;103531;1300;24422;-25
2022/03/20 06:45:12;;;;;;;59.90;21.60;;;;;;;1.32;49.62;101973.27;103525;1300;24318;-25
2022/03/20 06:47:40;;;;;;;31.60;14.60;;;;;;;1.34;48.87;101974.94;103538;1300;24301;-29
2022/03/20 06:50:06;;;;;;;63.20;26.20;;;;;;;1.30;48.61;101983.45;103540;1300;22511;-28
2022/03/20 06:52:32;;;;;;;29.00;14.50;;;;;;;1.28;48.71;101983.86;103650;1300;24211;-29
2022/03/20 06:54:59;;;;;;;35.80;14.90;;;;;;;1.27;49.01;101988.55;103583;1300;24313;-29
2022/03/20 06:57:26;;;;;;;31.20;16.50;;;;;;;1.34;49.27;101988.01;103662;1300;24305;-26
2022/03/20 06:59:51;;;;;;;39.40;14.90;;;;;;;1.39;49.11;101996.06;103666;1300;25455;-25
2022/03/20 07:02:18;;;;;;;22.40;13.00;;;;;;;1.47;48.26;101988.95;103580;1300;24246;-28
2022/03/20 07:04:47;;;;;;;25.30;13.00;;;;;;;1.46;48.17;101989.92;103566;1300;24257;-29
2022/03/20 07:07:15;;;;;;;35.60;14.40;;;;;;;1.40;48.19;101993.55;103562;1302;24372;-25
2022/03/20 07:09:41;;;;;;;29.40;14.10;;;;;;;1.39;47.91;101989.17;103555;1300;24210;-30
2022/03/20 07:12:08;;;;;;;23.30;12.50;;;;;;;1.46;47.52;101994.66;103567;1300;24221;-25
2022/03/20 07:14:34;;;;;;;31.70;17.00;;;;;;;1.49;47.24;101993.31;103605;1300;24246;-28
2022/03/20 07:17:03;;;;;;;35.20;14.40;;;;;;;1.58;47.81;101999.23;103521;1300;24311;-25
2022/03/20 07:19:31;;;;;;;36.60;15.10;;;;;;;1.77;47.87;102002.66;103659;1300;22985;-27
2022/03/20 07:21:57;;;;;;;28.50;15.50;;;;;;;1.98;47.45;101996.34;103580;1300;24205;-26
2022/03/20 07:24:23;;;;;;;32.90;17.00;;;;;;;2.23;46.66;101994.17;103593;1300;24364;-25
2022/03/20 07:31:48;;;;;;;39.00;15.90;;;;;;;2.82;44.54;101997.79;103426;1302;25345;-29
2022/03/20 07:34:14;;;;;;;27.90;14.60;;;;;;;2.95;44.14;102001.50;103537;1300;24266;-29
2022/03/20 07:36:40;;;;;;;27.30;14.60;;;;;;;3.16;43.55;102006.54;103539;1300;24526;-28
2022/03/20 07:39:06;;;;;;;23.70;12.70;;;;;;;3.29;43.43;102002.08;103511;1300;24211;-30
2022/03/20 07:41:31;;;;;;;30.90;15.30;;;;;;;3.51;43.15;101999.48;103498;1300;24215;-28
2022/03/20 07:43:57;;;;;;;34.60;16.70;;;;;;;3.66;42.79;102000.55;103503;1302;22974;-28
2022/03/20 07:46:23;;;;;;;28.40;13.70;;;;;;;3.87;42.79;101996.69;103549;1299;24266;-24
2022/03/20 07:48:50;;;;;;;24.30;12.70;;;;;;;4.09;41.99;101990.40;103540;1301;24237;-28
2022/03/20 07:51:17;;;;;;;30.50;14.80;;;;;;;4.26;41.40;101988.52;103568;1300;24300;-27
2022/03/20 07:53:43;;;;;;;34.70;15.30;;;;;;;4.44;41.10;101987.64;103588;1300;22759;-25
2022/03/20 07:56:10;;;;;;;24.40;13.90;;;;;;;4.53;40.58;101990.10;103542;1302;24252;-28
2022/03/20 07:58:35;;;;;;;32.20;16.20;;;;;;;4.65;40.65;101988.45;103509;1300;24328;-28
2022/03/20 08:01:01;;;;;;;29.60;14.80;;;;;;;4.85;40.79;101987.90;103572;1300;22561;-25
2022/03/20 08:03:27;;;;;;;22.60;12.20;;;;;;;5.03;40.85;101986.77;103606;1300;24298;-29
2022/03/20 08:05:53;;;;;;;35.70;16.20;;;;;;;5.28;40.34;101989.80;103626;1300;24348;-26
2022/03/20 08:08:19;;;;;;;67.90;36.90;;;;;;;5.39;39.81;101989.63;103556;1300;24291;-29
2022/03/20 08:10:45;;;;;;;32.60;19.00;;;;;;;5.52;39.98;101989.65;103508;1303;25029;-27
2022/03/20 08:13:11;;;;;;;30.80;16.70;;;;;;;5.69;39.45;101995.33;103536;1300;25036;-29
2022/03/20 08:15:38;;;;;;;41.80;19.80;;;;;;;5.80;38.65;101995.80;103575;1300;24343;-23
2022/03/20 08:18:06;;;;;;;59.30;27.60;;;;;;;5.90;38.16;101995.72;103577;1302;24334;-25
2022/03/20 08:20:31;;;;;;;44.80;22.90;;;;;;;5.96;37.85;101992.11;103562;1300;24439;-25
2022/03/20 08:22:57;;;;;;;26.20;14.30;;;;;;;6.04;38.04;101993.55;103581;1300;24215;-26
2022/03/20 08:25:26;;;;;;;28.30;15.30;;;;;;;6.20;38.34;101993.71;103551;1300;24330;-30
2022/03/20 08:27:51;;;;;;;31.70;15.20;;;;;;;6.46;37.07;101990.65;103615;1300;22922;-24
2022/03/20 08:30:17;;;;;;;28.40;16.10;;;;;;;6.52;37.01;101991.66;103510;1300;24560;-25
2022/03/20 08:32:43;;;;;;;30.00;18.70;;;;;;;6.58;36.84;101989.13;103618;1300;24210;-28
2022/03/20 08:35:14;;;;;;;52.30;26.90;;;;;;;6.77;36.11;101982.09;103553;1300;24434;-29
2022/03/20 08:37:43;;;;;;;33.60;15.00;;;;;;;6.89;36.12;101983.03;103619;1300;24318;-29
2022/03/20 08:40:15;;;;;;;42.00;21.90;;;;;;;7.00;36.07;101980.45;103601;1300;24241;-25
2022/03/20 08:42:44;;;;;;;26.80;14.60;;;;;;;7.21;35.91;101981.63;103587;1300;24070;-25
2022/03/20 08:45:11;;;;;;;34.50;15.20;;;;;;;7.23;35.52;101981.45;103539;1302;24221;-29
2022/03/20 08:47:38;;;;;;;26.10;17.50;;;;;;;7.49;35.17;101972.42;103656;1300;24249;-28
2022/03/20 08:50:04;;;;;;;32.70;16.30;;;;;;;7.58;35.04;101973.71;103564;1300;24293;-30
2022/03/20 08:52:30;;;;;;;37.50;22.20;;;;;;;7.65;34.99;101968.23;103600;1300;24273;-28
2022/03/20 08:54:56;;;;;;;28.40;16.60;;;;;;;7.74;34.51;101966.80;103615;1300;23246;-28
2022/03/20 08:57:25;;;;;;;31.40;17.90;;;;;;;7.79;34.57;101965.16;103606;1300;24375;-27
2022/03/20 08:59:52;;;;;;;32.20;18.10;;;;;;;7.91;34.29;101968.02;103624;1300;24378;-29
2022/03/20 09:02:18;;;;;;;23.50;15.20;;;;;;;8.08;34.66;101962.98;103530;1300;22759;-28
2022/03/20 09:04:43;;;;;;;31.20;16.20;;;;;;;8.27;33.56;101963.48;103526;1300;24211;-28
2022/03/20 09:07:09;;;;;;;38.50;15.90;;;;;;;8.21;33.50;101965.20;103562;1300;24393;-25
2022/03/20 09:09:35;;;;;;;41.60;21.00;;;;;;;8.29;33.51;101963.14;103510;1302;22610;-27
2022/03/20 09:12:01;;;;;;;34.50;18.50;;;;;;;8.33;33.31;101967.83;103631;1300;24229;-30
2022/03/20 09:14:27;;;;;;;30.70;15.50;;;;;;;8.57;32.99;101963.34;103568;1300;25165;-30
2022/03/20 09:19:22;;;;;;;25.00;14.70;;;;;;;8.56;33.03;101969.32;103588;1300;24263;-25
2022/03/20 09:21:48;;;;;;;21.40;15.00;;;;;;;8.70;32.55;101966.73;103572;1300;24368;-26
2022/03/20 09:24:15;;;;;;;29.70;15.10;;;;;;;8.85;31.66;101963.55;103542;1300;24269;-29
2022/03/20 09:26:41;;;;;;;20.90;14.70;;;;;;;8.81;32.12;101971.06;103597;1300;22636;-28
2022/03/20 09:29:07;;;;;;;30.10;15.60;;;;;;;8.89;31.92;101968.27;103613;1301;24468;-24
2022/03/20 09:31:34;;;;;;;30.50;13.50;;;;;;;9.05;31.48;101969.10;103534;1300;24229;-28
2022/03/20 09:34:02;;;;;;;28.70;15.00;;;;;;;8.86;32.01;101972.45;103458;1300;24364;-28
2022/03/20 09:36:29;;;;;;;25.20;14.90;;;;;;;9.09;31.31;101968.63;103617;1300;24384;-28
2022/03/20 09:38:54;;;;;;;28.90;13.70;;;;;;;9.10;30.84;101970.14;103612;1300;24297;-28
2022/03/20 09:41:21;;;;;;;35.80;18.50;;;;;;;9.10;30.91;101974.98;103615;1300;24185;-28
2022/03/20 09:43:47;;;;;;;45.80;29.60;;;;;;;9.13;31.13;101974.73;103587;1300;24382;-28
2022/03/20 09:46:15;;;;;;;25.30;17.10;;;;;;;9.35;31.02;101968.99;103544;1300;24710;-28
2022/03/20 09:48:41;;;;;;;32.70;20.70;;;;;;;9.42;31.07;101966.48;103479;1300;22804;-25
2022/03/20 09:51:07;;;;;;;26.60;16.80;;;;;;;9.69;30.23;101965.53;103569;1300;24211;-25
2022/03/20 09:53:32;;;;;;;22.00;14.80;;;;;;;9.79;29.98;101960.20;103747;1300;24246;-28
2022/03/20 09:55:58;;;;;;;29.70;13.60;;;;;;;9.78;29.87;101963.13;103535;1300;24433;-25
2022/03/20 09:58:26;;;;;;;25.40;15.80;;;;;;;9.84;29.76;101961.60;103444;1303;24231;-28
2022/03/20 10:00:52;;;;;;;26.00;14.40;;;;;;;9.73;29.39;101962.45;103570;1300;24216;-25
2022/03/20 10:03:21;;;;;;;43.70;21.60;;;;;;;9.85;29.52;101961.45;103606;1302;24228;-30
2022/03/20 10:05:53;;;;;;;25.50;13.80;;;;;;;10.22;28.43;101958.67;103554;1300;24352;-30
2022/03/20 10:08:20;;;;;;;34.70;16.10;;;;;;;10.38;28.05;101955.15;103652;1300;22879;-25
2022/03/20 10:10:47;;;;;;;24.10;12.60;;;;;;;10.44;27.43;101955.02;103513;1300;24320;-28
2022/03/20 10:13:13;;;;;;;21.00;10.20;;;;;;;10.91;26.82;101954.36;103564;1300;25677;-25
2022/03/20 10:15:41;;;;;;;51.00;18.50;;;;;;;11.11;26.28;101956.11;103617;1300;24294;-27
2022/03/20 10:18:08;;;;;;;37.30;15.10;;;;;;;11.40;26.64;101949.95;103619;1299;24353;-30
2022/03/20 10:20:36;;;;;;;21.60;11.30;;;;;;;11.69;26.20;101952.67;103615;1300;22645;-30
2022/03/20 10:23:04;;;;;;;23.90;11.30;;;;;;;11.87;26.17;101951.76;103642;1300;24373;-28
2022/03/20 10:25:29;;;;;;;18.40;10.30;;;;;;;11.89;25.07;101958.16;103624;1300;24249;-30
2022/03/20 10:27:57;;;;;;;16.20;10.50;;;;;;;12.15;25.58;101950.89;103467;1303;24471;-27
2022/03/20 10:30:23;;;;;;;42.70;18.10;;;;;;;12.54;26.03;101953.85;103556;1300;24317;-24
2022/03/20 10:32:49;;;;;;;23.80;16.70;;;;;;;12.88;24.84;101947.16;103528;1300;22791;-24
2022/03/20 10:35:17;;;;;;;23.40;12.50;;;;;;;13.06;24.45;101946.50;103510;1302;22515;-27
2022/03/20 10:37:46;;;;;;;87.50;67.70;;;;;;;12.92;24.90;101948.96;103637;1300;24413;-28
2022/03/20 10:40:15;;;;;;;20.20;13.20;;;;;;;12.67;24.83;101946.48;103606;1300;24348;-24
2022/03/20 10:42:42;;;;;;;25.30;18.00;;;;;;;12.70;25.67;101949.46;103527;1300;22839;-29
2022/03/20 10:45:08;;;;;;;25.70;16.30;;;;;;;12.98;25.12;101944.39;103602;1300;24206;-26
2022/03/20 10:47:34;;;;;;;27.70;16.10;;;;;;;13.02;24.66;101936.84;103430;1300;24294;-28
2022/03/20 10:50:01;;;;;;;22.20;12.60;;;;;;;12.67;24.86;101940.60;103492;1300;24347;-28
2022/03/20 10:52:29;;;;;;;20.90;13.00;;;;;;;12.44;24.71;101940.77;103607;1300;24194;-25
2022/03/20 10:54:55;;;;;;;21.20;14.60;;;;;;;12.25;24.65;101941.52;103576;1301;24360;-25
2022/03/20 10:57:21;;;;;;;63.80;38.20;;;;;;;12.24;24.23;101938.36;103547;1300;24368;-24
2022/03/20 10:59:54;;;;;;;15.70;9.60;;;;;;;12.00;24.85;101936.84;103488;1301;24226;-25
2022/03/20 11:02:21;;;;;;;17.30;11.20;;;;;;;12.08;24.98;101937.41;103558;1300;22501;-25
2022/03/20 11:04:47;;;;;;;187.70;63.80;;;;;;;11.98;24.88;101939.73;103497;1302;22514;-28
2022/03/20 11:07:16;;;;;;;133.20;55.10;;;;;;;12.18;24.86;101935.73;103673;1301;24200;-25
2022/03/20 11:09:46;;;;;;;21.40;13.50;;;;;;;12.18;24.50;101935.50;103554;1302;24245;-28
2022/03/20 11:12:15;;;;;;;540.20;281.90;;;;;;;12.22;25.09;101931.89;103527;1300;24189;-28
2022/03/20 11:14:41;;;;;;;184.80;96.80;;;;;;;12.30;24.86;101930.45;103568;1300;22530;-25
2022/03/20 11:17:07;;;;;;;42.40;24.60;;;;;;;12.42;24.38;101927.70;103455;1300;24464;-25
2022/03/20 11:19:34;;;;;;;75.40;49.60;;;;;;;12.49;24.37;101924.14;103567;1300;24359;-28
2022/03/20 11:22:04;;;;;;;18.20;13.20;;;;;;;12.43;23.97;101919.33;103536;1300;24367;-24
2022/03/20 11:24:30;;;;;;;73.20;38.50;;;;;;;12.38;24.52;101919.63;103533;1300;24363;-29
2022/03/20 11:26:58;;;;;;;175.40;87.60;;;;;;;12.66;24.05;101919.65;103623;1300;24277;-30
2022/03/20 11:29:24;;;;;;;136.10;71.10;;;;;;;12.71;24.20;101910.20;103573;1300;24340;-25
2022/03/20 11:31:50;;;;;;;75.50;43.40;;;;;;;12.69;23.95;101915.70;103479;1302;22712;-25
2022/03/20 11:34:16;;;;;;;18.30;12.10;;;;;;;12.67;24.14;101909.27;103511;1300;24298;-24
2022/03/20 11:36:48;;;;;;;77.40;40.50;;;;;;;12.57;23.71;101912.21;103576;1300;22862;-25
2022/03/20 11:39:15;;;;;;;17.40;12.50;;;;;;;12.62;23.83;101909.61;103559;1300;23066;-24
2022/03/20 11:41:42;;;;;;;42.80;31.00;;;;;;;12.50;24.17;101898.94;103535;1300;24306;-25